sensor_id;sensor_type;location;lat;lon;timestamp;pressure;altitude;pressure_sealevel;temperature;humidity
51986;BME280;38002;53.296;6.600;2022-12-29T00:00:35;99910.22;;;9.99;94.92
51986;BME280;38002;53.296;6.600;2022-12-29T00:05:35;99918.16;;;10.01;94.20
51986;BME280;38002;53.296;6.600;2022-12-29T00:10:36;99907.50;;;9.99;94.60
51986;BME280;38002;53.296;6.600;2022-12-29T00:15:36;99912.94;;;9.99;95.01
51986;BME280;38002;53.296;6.600;2022-12-29T00:20:37;99917.88;;;9.96;95.64
51986;BME280;38002;53.296;6.600;2022-12-29T00:25:56;99922.09;;;9.98;95.17
51986;BME280;38002;53.296;6.600;2022-12-29T00:31:15;99906.47;;;10.00;95.40
51986;BME280;38002;53.296;6.600;2022-12-29T00:36:36;99889.66;;;10.05;95.58
51986;BME280;38002;53.296;6.600;2022-12-29T00:41:38;99895.00;;;10.13;94.97
51986;BME280;38002;53.296;6.600;2022-12-29T00:46:57;99888.69;;;10.21;94.97
51986;BME280;38002;53.296;6.600;2022-12-29T00:52:06;99885.78;;;10.22;93.91
51986;BME280;38002;53.296;6.600;2022-12-29T00:57:09;99872.69;;;10.26;94.77
51986;BME280;38002;53.296;6.600;2022-12-29T01:02:10;99877.72;;;10.29;93.79
51986;BME280;38002;53.296;6.600;2022-12-29T01:07:10;99864.06;;;10.37;93.49
51986;BME280;38002;53.296;6.600;2022-12-29T01:12:11;99873.75;;;10.39;94.29
51986;BME280;38002;53.296;6.600;2022-12-29T01:17:12;99873.34;;;10.42;93.09
51986;BME280;38002;53.296;6.600;2022-12-29T01:22:12;99860.63;;;10.43;93.30
51986;BME280;38002;53.296;6.600;2022-12-29T01:27:12;99863.34;;;10.43;93.64
51986;BME280;38002;53.296;6.600;2022-12-29T01:32:13;99849.75;;;10.43;93.61
51986;BME280;38002;53.296;6.600;2022-12-29T01:37:13;99847.03;;;10.43;93.78
51986;BME280;38002;53.296;6.600;2022-12-29T01:42:19;99841.78;;;10.41;93.25
51986;BME280;38002;53.296;6.600;2022-12-29T01:47:28;99840.44;;;10.37;94.16
51986;BME280;38002;53.296;6.600;2022-12-29T01:52:32;99834.38;;;10.35;93.80
51986;BME280;38002;53.296;6.600;2022-12-29T01:57:37;99825.94;;;10.30;94.54
51986;BME280;38002;53.296;6.600;2022-12-29T02:02:38;99821.22;;;10.24;94.88
51986;BME280;38002;53.296;6.600;2022-12-29T02:07:40;99826.56;;;10.18;95.52
51986;BME280;38002;53.296;6.600;2022-12-29T02:12:42;99812.66;;;10.13;95.59
51986;BME280;38002;53.296;6.600;2022-12-29T02:18:14;99800.81;;;10.06;95.44
51986;BME280;38002;53.296;6.600;2022-12-29T02:23:25;99803.44;;;9.99;95.75
51986;BME280;38002;53.296;6.600;2022-12-29T02:29:08;99788.56;;;9.95;96.45
51986;BME280;38002;53.296;6.600;2022-12-29T02:39:27;99760.72;;;9.93;96.13
51986;BME280;38002;53.296;6.600;2022-12-29T02:50:19;99782.56;;;9.99;95.48
51986;BME280;38002;53.296;6.600;2022-12-29T02:55:21;99756.91;;;10.02;95.66
51986;BME280;38002;53.296;6.600;2022-12-29T03:00:21;99744.00;;;10.04;95.32
51986;BME280;38002;53.296;6.600;2022-12-29T03:11:05;99760.22;;;10.12;95.07
51986;BME280;38002;53.296;6.600;2022-12-29T03:16:49;99763.56;;;10.14;94.58
51986;BME280;38002;53.296;6.600;2022-12-29T03:22:08;99769.00;;;10.14;94.86
51986;BME280;38002;53.296;6.600;2022-12-29T03:27:38;99762.56;;;10.15;94.03
51986;BME280;38002;53.296;6.600;2022-12-29T03:32:52;99771.19;;;10.19;93.49
51986;BME280;38002;53.296;6.600;2022-12-29T03:38:12;99773.34;;;10.23;91.44
51986;BME280;38002;53.296;6.600;2022-12-29T03:43:14;99764.00;;;10.26;91.29
51986;BME280;38002;53.296;6.600;2022-12-29T03:48:15;99753.88;;;10.20;89.87
51986;BME280;38002;53.296;6.600;2022-12-29T03:53:16;99753.53;;;10.15;91.55
51986;BME280;38002;53.296;6.600;2022-12-29T03:58:16;99757.19;;;10.07;91.12
51986;BME280;38002;53.296;6.600;2022-12-29T04:03:17;99763.00;;;10.04;91.58
51986;BME280;38002;53.296;6.600;2022-12-29T04:08:17;99766.66;;;9.96;91.54
51986;BME280;38002;53.296;6.600;2022-12-29T04:13:18;99763.66;;;9.91;91.69
51986;BME280;38002;53.296;6.600;2022-12-29T04:18:18;99757.75;;;9.88;92.01
51986;BME280;38002;53.296;6.600;2022-12-29T04:23:18;99765.03;;;9.87;92.32
51986;BME280;38002;53.296;6.600;2022-12-29T04:28:19;99756.34;;;9.92;91.66
51986;BME280;38002;53.296;6.600;2022-12-29T04:33:20;99772.44;;;9.93;91.14
51986;BME280;38002;53.296;6.600;2022-12-29T04:38:22;99777.53;;;9.96;89.66
51986;BME280;38002;53.296;6.600;2022-12-29T04:43:23;99781.25;;;9.95;90.35
51986;BME280;38002;53.296;6.600;2022-12-29T04:48:23;99783.31;;;9.93;88.56
51986;BME280;38002;53.296;6.600;2022-12-29T04:53:24;99784.53;;;9.91;88.71
51986;BME280;38002;53.296;6.600;2022-12-29T04:58:24;99790.50;;;9.86;89.02
51986;BME280;38002;53.296;6.600;2022-12-29T05:03:24;99800.97;;;9.75;88.91
51986;BME280;38002;53.296;6.600;2022-12-29T05:08:25;99807.97;;;9.69;90.16
51986;BME280;38002;53.296;6.600;2022-12-29T05:13:25;99799.22;;;9.59;87.08
51986;BME280;38002;53.296;6.600;2022-12-29T05:18:26;99793.63;;;9.61;88.80
51986;BME280;38002;53.296;6.600;2022-12-29T05:23:26;99786.88;;;9.56;89.08
51986;BME280;38002;53.296;6.600;2022-12-29T05:28:26;99788.44;;;9.51;88.88
51986;BME280;38002;53.296;6.600;2022-12-29T05:33:27;99796.47;;;9.44;89.00
51986;BME280;38002;53.296;6.600;2022-12-29T05:38:27;99799.34;;;9.43;88.91
51986;BME280;38002;53.296;6.600;2022-12-29T05:43:28;99794.63;;;9.37;89.29
51986;BME280;38002;53.296;6.600;2022-12-29T05:48:28;99809.78;;;9.31;89.23
51986;BME280;38002;53.296;6.600;2022-12-29T05:53:29;99818.25;;;9.28;89.60
51986;BME280;38002;53.296;6.600;2022-12-29T05:58:29;99811.97;;;9.28;89.54
51986;BME280;38002;53.296;6.600;2022-12-29T06:03:30;99812.66;;;9.30;89.00
51986;BME280;38002;53.296;6.600;2022-12-29T06:08:30;99796.00;;;9.33;88.90
51986;BME280;38002;53.296;6.600;2022-12-29T06:13:31;99817.72;;;9.33;88.66
51986;BME280;38002;53.296;6.600;2022-12-29T06:18:35;99829.06;;;9.36;87.54
51986;BME280;38002;53.296;6.600;2022-12-29T06:23:35;99820.03;;;9.44;87.55
51986;BME280;38002;53.296;6.600;2022-12-29T06:28:35;99816.84;;;9.40;86.56
51986;BME280;38002;53.296;6.600;2022-12-29T06:33:37;99802.97;;;9.35;87.05
51986;BME280;38002;53.296;6.600;2022-12-29T06:38:37;99825.53;;;9.36;86.55
51986;BME280;38002;53.296;6.600;2022-12-29T06:43:38;99817.72;;;9.33;87.44
51986;BME280;38002;53.296;6.600;2022-12-29T06:48:38;99818.09;;;9.30;87.41
51986;BME280;38002;53.296;6.600;2022-12-29T06:53:38;99829.31;;;9.27;87.39
51986;BME280;38002;53.296;6.600;2022-12-29T06:58:39;99824.59;;;9.21;87.11
51986;BME280;38002;53.296;6.600;2022-12-29T07:03:41;99817.47;;;9.20;86.76
51986;BME280;38002;53.296;6.600;2022-12-29T07:08:42;99831.56;;;9.15;85.12
51986;BME280;38002;53.296;6.600;2022-12-29T07:13:43;99828.50;;;9.18;85.06
51986;BME280;38002;53.296;6.600;2022-12-29T07:18:43;99837.28;;;9.20;85.49
51986;BME280;38002;53.296;6.600;2022-12-29T07:23:44;99840.84;;;9.21;86.49
51986;BME280;38002;53.296;6.600;2022-12-29T07:28:44;99839.34;;;9.18;87.26
51986;BME280;38002;53.296;6.600;2022-12-29T07:33:46;99841.69;;;9.21;86.67
51986;BME280;38002;53.296;6.600;2022-12-29T07:38:46;99843.88;;;9.26;86.25
51986;BME280;38002;53.296;6.600;2022-12-29T07:43:47;99846.06;;;9.30;86.73
51986;BME280;38002;53.296;6.600;2022-12-29T07:48:48;99847.25;;;9.28;85.08
51986;BME280;38002;53.296;6.600;2022-12-29T07:53:49;99862.44;;;9.37;86.09
51986;BME280;38002;53.296;6.600;2022-12-29T07:58:49;99858.56;;;9.39;86.02
51986;BME280;38002;53.296;6.600;2022-12-29T08:03:50;99851.91;;;9.42;85.73
51986;BME280;38002;53.296;6.600;2022-12-29T08:08:50;99869.72;;;9.44;85.06
51986;BME280;38002;53.296;6.600;2022-12-29T08:13:51;99890.38;;;9.45;85.87
51986;BME280;38002;53.296;6.600;2022-12-29T08:18:51;99864.63;;;9.41;86.58
51986;BME280;38002;53.296;6.600;2022-12-29T08:23:52;99870.44;;;9.38;86.95
51986;BME280;38002;53.296;6.600;2022-12-29T08:28:53;99879.59;;;9.37;85.17
51986;BME280;38002;53.296;6.600;2022-12-29T08:33:55;99869.41;;;9.39;86.74
51986;BME280;38002;53.296;6.600;2022-12-29T08:38:56;99880.91;;;9.41;86.44
51986;BME280;38002;53.296;6.600;2022-12-29T08:43:56;99882.28;;;9.37;85.88
51986;BME280;38002;53.296;6.600;2022-12-29T08:48:57;99895.75;;;9.31;86.05
51986;BME280;38002;53.296;6.600;2022-12-29T08:53:58;99879.84;;;9.20;87.01
51986;BME280;38002;53.296;6.600;2022-12-29T08:58:58;99872.44;;;9.14;87.47
51986;BME280;38002;53.296;6.600;2022-12-29T09:03:59;99871.09;;;9.09;87.93
51986;BME280;38002;53.296;6.600;2022-12-29T09:08:59;99879.88;;;9.11;87.64
51986;BME280;38002;53.296;6.600;2022-12-29T09:14:00;99882.06;;;9.16;88.12
51986;BME280;38002;53.296;6.600;2022-12-29T09:19:01;99888.69;;;9.14;87.98
51986;BME280;38002;53.296;6.600;2022-12-29T09:24:01;99893.97;;;9.07;88.78
51986;BME280;38002;53.296;6.600;2022-12-29T09:29:01;99903.84;;;9.00;89.01
51986;BME280;38002;53.296;6.600;2022-12-29T09:34:02;99914.69;;;9.00;88.70
51986;BME280;38002;53.296;6.600;2022-12-29T09:39:05;99906.03;;;9.04;88.37
51986;BME280;38002;53.296;6.600;2022-12-29T09:44:27;99911.09;;;9.07;88.50
51986;BME280;38002;53.296;6.600;2022-12-29T09:49:44;99913.16;;;9.05;88.91
51986;BME280;38002;53.296;6.600;2022-12-29T09:54:52;99919.09;;;9.01;89.59
51986;BME280;38002;53.296;6.600;2022-12-29T10:00:01;99899.97;;;8.94;90.10
51986;BME280;38002;53.296;6.600;2022-12-29T10:05:14;99909.78;;;8.95;89.39
51986;BME280;38002;53.296;6.600;2022-12-29T10:15:52;99948.59;;;8.96;89.34
51986;BME280;38002;53.296;6.600;2022-12-29T10:26:13;99959.78;;;8.85;90.62
51986;BME280;38002;53.296;6.600;2022-12-29T10:31:42;99975.91;;;8.78;90.70
51986;BME280;38002;53.296;6.600;2022-12-29T10:36:47;99975.59;;;8.73;91.54
51986;BME280;38002;53.296;6.600;2022-12-29T10:41:51;99990.84;;;8.74;92.26
51986;BME280;38002;53.296;6.600;2022-12-29T10:46:59;99988.78;;;8.76;90.78
51986;BME280;38002;53.296;6.600;2022-12-29T10:52:03;100002.34;;;8.76;90.99
51986;BME280;38002;53.296;6.600;2022-12-29T10:57:10;100013.88;;;8.78;90.85
51986;BME280;38002;53.296;6.600;2022-12-29T11:07:19;100030.13;;;8.86;90.65
51986;BME280;38002;53.296;6.600;2022-12-29T11:12:28;100032.66;;;8.88;91.43
51986;BME280;38002;53.296;6.600;2022-12-29T11:17:29;100047.88;;;8.89;90.47
51986;BME280;38002;53.296;6.600;2022-12-29T11:22:29;100063.66;;;8.93;90.69
51986;BME280;38002;53.296;6.600;2022-12-29T11:27:30;100054.84;;;8.99;90.28
51986;BME280;38002;53.296;6.600;2022-12-29T11:32:30;100054.47;;;9.02;90.66
51986;BME280;38002;53.296;6.600;2022-12-29T11:37:38;100073.16;;;9.05;90.54
51986;BME280;38002;53.296;6.600;2022-12-29T11:43:00;100073.81;;;9.07;90.01
51986;BME280;38002;53.296;6.600;2022-12-29T11:48:13;100095.34;;;9.09;90.82
51986;BME280;38002;53.296;6.600;2022-12-29T11:53:21;100106.00;;;9.10;90.12
51986;BME280;38002;53.296;6.600;2022-12-29T11:58:35;100108.72;;;9.10;90.24
51986;BME280;38002;53.296;6.600;2022-12-29T12:03:42;100109.06;;;9.16;89.21
51986;BME280;38002;53.296;6.600;2022-12-29T12:08:54;100123.97;;;9.11;90.36
51986;BME280;38002;53.296;6.600;2022-12-29T12:14:01;100131.75;;;9.06;90.37
51986;BME280;38002;53.296;6.600;2022-12-29T12:19:18;100144.31;;;8.99;89.91
51986;BME280;38002;53.296;6.600;2022-12-29T12:24:34;100159.59;;;8.92;90.78
51986;BME280;38002;53.296;6.600;2022-12-29T12:29:59;100174.16;;;8.91;90.57
51986;BME280;38002;53.296;6.600;2022-12-29T12:35:01;100177.88;;;8.90;90.75
51986;BME280;38002;53.296;6.600;2022-12-29T12:45:30;100203.97;;;9.16;89.97
51986;BME280;38002;53.296;6.600;2022-12-29T12:56:27;100220.09;;;9.17;88.39
51986;BME280;38002;53.296;6.600;2022-12-29T13:11:59;100225.69;;;9.16;89.07
51986;BME280;38002;53.296;6.600;2022-12-29T13:22:32;100230.78;;;9.19;88.93
51986;BME280;38002;53.296;6.600;2022-12-29T13:38:11;100262.66;;;9.17;88.06
51986;BME280;38002;53.296;6.600;2022-12-29T13:43:13;100271.78;;;9.07;88.93
51986;BME280;38002;53.296;6.600;2022-12-29T13:48:21;100279.91;;;8.99;88.66
51986;BME280;38002;53.296;6.600;2022-12-29T13:54:18;100285.47;;;8.90;87.24
51986;BME280;38002;53.296;6.600;2022-12-29T14:04:30;100293.41;;;8.75;88.91
51986;BME280;38002;53.296;6.600;2022-12-29T14:09:41;100293.41;;;8.75;87.74
51986;BME280;38002;53.296;6.600;2022-12-29T14:14:42;100295.94;;;8.77;88.63
51986;BME280;38002;53.296;6.600;2022-12-29T14:19:44;100292.38;;;8.76;87.93
51986;BME280;38002;53.296;6.600;2022-12-29T14:24:45;100296.13;;;8.75;87.50
51986;BME280;38002;53.296;6.600;2022-12-29T14:29:48;100305.75;;;8.70;87.50
51986;BME280;38002;53.296;6.600;2022-12-29T14:34:59;100307.94;;;8.66;86.71
51986;BME280;38002;53.296;6.600;2022-12-29T14:40:08;100311.66;;;8.65;87.45
51986;BME280;38002;53.296;6.600;2022-12-29T14:50:48;100336.50;;;8.52;86.30
51986;BME280;38002;53.296;6.600;2022-12-29T14:55:44;100332.75;;;8.45;87.60
51986;BME280;38002;53.296;6.600;2022-12-29T15:00:50;100337.09;;;8.38;87.63
51986;BME280;38002;53.296;6.600;2022-12-29T15:06:07;100340.91;;;8.28;87.21
51986;BME280;38002;53.296;6.600;2022-12-29T15:11:14;100349.97;;;8.18;87.49
51986;BME280;38002;53.296;6.600;2022-12-29T15:16:34;100350.59;;;8.12;88.33
51986;BME280;38002;53.296;6.600;2022-12-29T15:21:36;100356.69;;;8.06;88.36
51986;BME280;38002;53.296;6.600;2022-12-29T15:26:40;100359.00;;;8.01;88.82
51986;BME280;38002;53.296;6.600;2022-12-29T15:31:46;100361.84;;;8.00;88.32
51986;BME280;38002;53.296;6.600;2022-12-29T15:36:50;100374.72;;;7.98;89.14
51986;BME280;38002;53.296;6.600;2022-12-29T15:41:53;100381.59;;;7.92;89.05
51986;BME280;38002;53.296;6.600;2022-12-29T15:47:03;100369.38;;;7.88;88.92
51986;BME280;38002;53.296;6.600;2022-12-29T15:52:08;100384.06;;;7.86;88.81
51986;BME280;38002;53.296;6.600;2022-12-29T15:57:30;100380.16;;;7.80;88.91
51986;BME280;38002;53.296;6.600;2022-12-29T16:02:32;100382.69;;;7.82;88.42
51986;BME280;38002;53.296;6.600;2022-12-29T16:07:33;100393.69;;;7.80;88.93
51986;BME280;38002;53.296;6.600;2022-12-29T16:12:36;100403.81;;;7.78;89.42
51986;BME280;38002;53.296;6.600;2022-12-29T16:17:50;100407.03;;;7.82;89.05
51986;BME280;38002;53.296;6.600;2022-12-29T16:22:55;100408.88;;;7.81;89.97
51986;BME280;38002;53.296;6.600;2022-12-29T16:27:57;100431.56;;;7.80;91.18
51986;BME280;38002;53.296;6.600;2022-12-29T16:33:01;100430.88;;;7.78;90.38
51986;BME280;38002;53.296;6.600;2022-12-29T16:38:19;100425.38;;;7.70;91.11
51986;BME280;38002;53.296;6.600;2022-12-29T16:43:27;100399.94;;;7.63;90.35
51986;BME280;38002;53.296;6.600;2022-12-29T16:48:38;100399.16;;;7.53;92.21
51986;BME280;38002;53.296;6.600;2022-12-29T16:53:53;100388.41;;;7.43;91.26
51986;BME280;38002;53.296;6.600;2022-12-29T16:59:06;100413.97;;;7.31;91.36
51986;BME280;38002;53.296;6.600;2022-12-29T17:04:10;100413.03;;;7.22;91.60
51986;BME280;38002;53.296;6.600;2022-12-29T17:09:21;100420.91;;;7.16;91.37
51986;BME280;38002;53.296;6.600;2022-12-29T17:19:43;100435.63;;;7.04;91.74
51986;BME280;38002;53.296;6.600;2022-12-29T17:24:44;100451.59;;;6.97;91.80
51986;BME280;38002;53.296;6.600;2022-12-29T17:29:45;100437.53;;;6.94;92.04
51986;BME280;38002;53.296;6.600;2022-12-29T17:34:46;100437.66;;;6.92;92.33
51986;BME280;38002;53.296;6.600;2022-12-29T17:39:47;100453.13;;;7.00;92.45
51986;BME280;38002;53.296;6.600;2022-12-29T17:44:47;100451.38;;;7.08;93.57
51986;BME280;38002;53.296;6.600;2022-12-29T17:49:48;100456.22;;;7.14;92.91
51986;BME280;38002;53.296;6.600;2022-12-29T17:54:50;100464.72;;;7.19;92.34
51986;BME280;38002;53.296;6.600;2022-12-29T17:59:51;100457.84;;;7.25;92.46
51986;BME280;38002;53.296;6.600;2022-12-29T18:04:52;100479.19;;;7.28;92.85
51986;BME280;38002;53.296;6.600;2022-12-29T18:09:53;100471.94;;;7.28;92.28
51986;BME280;38002;53.296;6.600;2022-12-29T18:14:54;100482.69;;;7.38;91.65
51986;BME280;38002;53.296;6.600;2022-12-29T18:19:55;100491.19;;;7.43;91.85
51986;BME280;38002;53.296;6.600;2022-12-29T18:24:56;100491.19;;;7.43;91.19
51986;BME280;38002;53.296;6.600;2022-12-29T18:29:56;100499.75;;;7.39;92.06
51986;BME280;38002;53.296;6.600;2022-12-29T18:34:56;100498.66;;;7.32;92.30
51986;BME280;38002;53.296;6.600;2022-12-29T18:39:57;100491.72;;;7.29;91.60
51986;BME280;38002;53.296;6.600;2022-12-29T18:44:58;100504.53;;;7.27;91.34
51986;BME280;38002;53.296;6.600;2022-12-29T18:49:58;100518.91;;;7.27;91.27
51986;BME280;38002;53.296;6.600;2022-12-29T18:54:59;100520.03;;;7.25;91.04
51986;BME280;38002;53.296;6.600;2022-12-29T18:59:59;100522.91;;;7.23;91.07
51986;BME280;38002;53.296;6.600;2022-12-29T19:05:00;100533.44;;;7.17;90.40
51986;BME280;38002;53.296;6.600;2022-12-29T19:10:00;100534.75;;;7.13;90.66
51986;BME280;38002;53.296;6.600;2022-12-29T19:15:01;100552.13;;;7.10;91.17
51986;BME280;38002;53.296;6.600;2022-12-29T19:20:09;100548.28;;;7.13;90.89
51986;BME280;38002;53.296;6.600;2022-12-29T19:25:15;100542.41;;;7.17;91.23
51986;BME280;38002;53.296;6.600;2022-12-29T19:30:16;100552.97;;;7.20;90.44
51986;BME280;38002;53.296;6.600;2022-12-29T19:35:18;100555.94;;;7.17;91.00
51986;BME280;38002;53.296;6.600;2022-12-29T19:40:21;100548.00;;;7.16;90.59
51986;BME280;38002;53.296;6.600;2022-12-29T19:45:22;100558.63;;;7.17;90.37
51986;BME280;38002;53.296;6.600;2022-12-29T19:50:23;100554.53;;;7.13;90.53
51986;BME280;38002;53.296;6.600;2022-12-29T19:55:23;100555.16;;;7.07;90.62
51986;BME280;38002;53.296;6.600;2022-12-29T20:00:24;100566.41;;;7.03;91.16
51986;BME280;38002;53.296;6.600;2022-12-29T20:05:24;100570.09;;;7.02;90.85
51986;BME280;38002;53.296;6.600;2022-12-29T20:10:25;100584.47;;;7.02;90.45
51986;BME280;38002;53.296;6.600;2022-12-29T20:15:25;100583.31;;;7.05;90.60
51986;BME280;38002;53.296;6.600;2022-12-29T20:20:26;100580.91;;;7.02;91.07
51986;BME280;38002;53.296;6.600;2022-12-29T20:25:28;100581.88;;;7.01;91.01
51986;BME280;38002;53.296;6.600;2022-12-29T20:30:29;100581.88;;;7.01;91.04
51986;BME280;38002;53.296;6.600;2022-12-29T20:35:29;100593.69;;;7.00;90.81
51986;BME280;38002;53.296;6.600;2022-12-29T20:40:29;100595.84;;;6.96;90.71
51986;BME280;38002;53.296;6.600;2022-12-29T20:45:30;100598.69;;;6.95;90.70
51986;BME280;38002;53.296;6.600;2022-12-29T20:50:30;100609.78;;;6.92;90.41
51986;BME280;38002;53.296;6.600;2022-12-29T20:55:31;100622.63;;;6.90;90.84
51986;BME280;38002;53.296;6.600;2022-12-29T21:00:32;100613.91;;;6.86;90.70
51986;BME280;38002;53.296;6.600;2022-12-29T21:05:35;100616.78;;;6.84;90.74
51986;BME280;38002;53.296;6.600;2022-12-29T21:10:36;100618.94;;;6.81;90.87
51986;BME280;38002;53.296;6.600;2022-12-29T21:15:37;100631.03;;;6.77;90.99
51986;BME280;38002;53.296;6.600;2022-12-29T21:20:38;100640.25;;;6.74;90.83
51986;BME280;38002;53.296;6.600;2022-12-29T21:25:42;100623.47;;;6.71;91.43
51986;BME280;38002;53.296;6.600;2022-12-29T21:30:43;100629.16;;;6.77;90.54
51986;BME280;38002;53.296;6.600;2022-12-29T21:35:44;100628.31;;;6.77;91.29
51986;BME280;38002;53.296;6.600;2022-12-29T21:40:44;100635.56;;;6.76;91.06
51986;BME280;38002;53.296;6.600;2022-12-29T21:45:48;100626.59;;;6.76;91.08
51986;BME280;38002;53.296;6.600;2022-12-29T21:50:55;100643.81;;;6.75;91.12
51986;BME280;38002;53.296;6.600;2022-12-29T21:56:17;100635.69;;;6.75;91.23
51986;BME280;38002;53.296;6.600;2022-12-29T22:01:17;100641.09;;;6.75;90.91
51986;BME280;38002;53.296;6.600;2022-12-29T22:06:36;100665.28;;;6.76;90.74
51986;BME280;38002;53.296;6.600;2022-12-29T22:11:55;100667.44;;;6.73;91.05
51986;BME280;38002;53.296;6.600;2022-12-29T22:17:14;100672.09;;;6.71;90.94
51986;BME280;38002;53.296;6.600;2022-12-29T22:22:15;100678.25;;;6.73;90.90
51986;BME280;38002;53.296;6.600;2022-12-29T22:27:16;100691.47;;;6.76;90.92
51986;BME280;38002;53.296;6.600;2022-12-29T22:32:16;100706.25;;;6.72;90.42
51986;BME280;38002;53.296;6.600;2022-12-29T22:37:17;100711.09;;;6.68;90.81
51986;BME280;38002;53.296;6.600;2022-12-29T22:42:17;100732.97;;;6.65;90.84
51986;BME280;38002;53.296;6.600;2022-12-29T22:47:18;100746.88;;;6.61;90.56
51986;BME280;38002;53.296;6.600;2022-12-29T22:52:18;100746.31;;;6.57;90.81
51986;BME280;38002;53.296;6.600;2022-12-29T22:57:19;100758.53;;;6.52;90.98
51986;BME280;38002;53.296;6.600;2022-12-29T23:02:19;100767.78;;;6.49;90.52
51986;BME280;38002;53.296;6.600;2022-12-29T23:07:20;100781.69;;;6.45;90.42
51986;BME280;38002;53.296;6.600;2022-12-29T23:12:20;100790.06;;;6.42;90.66
51986;BME280;38002;53.296;6.600;2022-12-29T23:17:21;100801.13;;;6.38;90.61
51986;BME280;38002;53.296;6.600;2022-12-29T23:22:22;100809.50;;;6.35;90.34
51986;BME280;38002;53.296;6.600;2022-12-29T23:27:24;100811.06;;;6.28;90.95
51986;BME280;38002;53.296;6.600;2022-12-29T23:32:24;100816.00;;;6.23;90.27
51986;BME280;38002;53.296;6.600;2022-12-29T23:37:25;100821.94;;;6.17;90.51
51986;BME280;38002;53.296;6.600;2022-12-29T23:42:25;100834.00;;;6.13;90.81
51986;BME280;38002;53.296;6.600;2022-12-29T23:47:25;100828.16;;;6.08;90.79
51986;BME280;38002;53.296;6.600;2022-12-29T23:52:26;100836.66;;;6.04;91.06
51986;BME280;38002;53.296;6.600;2022-12-29T23:57:27;100840.47;;;6.01;90.91
